Time;durP1;ratioP1;P1;durP2;ratioP2;P2;SDS_P1;SDS_P2;PMS_P1;PMS_P2;Temp;Humidity;BMP_temperature;BMP_pressure;BME280_temperature;BME280_humidity;BME280_pressure;Samples;Min_cycle;Max_cycle;Signal;HPM_P1;HPM_P2
2023/07/01 00:04:17;;;;;;;4.68;3.30;;;;;;;19.56;50.19;99632.72;10401918;28;20049;-63
2023/07/01 00:09:19;;;;;;;5.45;3.25;;;;;;;19.58;50.32;99633.38;10393938;28;20050;-64
2023/07/01 00:14:20;;;;;;;3.17;2.55;;;;;;;19.52;50.39;99631.47;10395914;28;20056;-64
2023/07/01 00:19:22;;;;;;;3.17;2.38;;;;;;;19.48;50.92;99631.00;10395363;28;20432;-64
2023/07/01 00:24:23;;;;;;;4.03;2.75;;;;;;;19.45;51.34;99628.69;10394979;28;20052;-64
2023/07/01 00:29:24;;;;;;;4.82;3.33;;;;;;;19.36;50.97;99611.00;10392270;28;20129;-63
2023/07/01 00:34:26;;;;;;;4.78;2.95;;;;;;;19.32;52.06;99597.06;10394775;28;20100;-63
2023/07/01 00:39:27;;;;;;;4.07;3.20;;;;;;;19.36;52.04;99614.53;10391139;28;20048;-62
2023/07/01 00:44:28;;;;;;;5.60;3.47;;;;;;;19.25;52.11;99601.59;10394051;28;20598;-63
2023/07/01 00:49:30;;;;;;;4.70;3.33;;;;;;;19.22;52.14;99597.41;10393211;28;20078;-63
2023/07/01 00:54:34;;;;;;;4.47;2.90;;;;;;;19.22;52.17;99597.41;10394409;28;20380;-64
2023/07/01 00:59:35;;;;;;;;;;;;;;;19.12;51.91;99596.09;10405491;28;20061;-63
2023/07/01 01:04:58;;;;;;;3.83;3.13;;;;;;;19.10;52.51;99593.56;10392450;28;20011;-64
2023/07/01 01:10:09;;;;;;;4.38;2.72;;;;;;;19.06;52.22;99584.19;10394963;28;20060;-64
2023/07/01 01:15:11;;;;;;;3.45;3.08;;;;;;;18.99;52.47;99594.94;10392246;28;20437;-65
2023/07/01 01:20:16;;;;;;;4.18;2.70;;;;;;;18.89;52.73;99575.56;10393676;28;21565;-65
2023/07/01 01:25:28;;;;;;;3.28;2.92;;;;;;;18.89;52.93;99579.09;10390987;28;20106;-63
2023/07/01 01:30:33;;;;;;;3.45;3.00;;;;;;;18.83;53.23;99581.72;10395088;28;20785;-66
2023/07/01 01:35:34;;;;;;;4.45;3.78;;;;;;;18.75;53.72;99579.13;10388012;28;20053;-66
2023/07/01 01:40:43;;;;;;;4.70;3.17;;;;;;;18.73;54.27;99576.63;10385210;28;20219;-64
2023/07/01 01:45:48;;;;;;;3.88;3.50;;;;;;;18.66;55.09;99581.97;10391525;28;20699;-63
2023/07/01 01:50:52;;;;;;;3.63;3.30;;;;;;;18.54;55.04;99556.56;10392907;28;20080;-63
2023/07/01 01:55:55;;;;;;;4.85;4.10;;;;;;;18.57;55.33;99566.97;10395686;28;20058;-63
2023/07/01 02:00:57;;;;;;;4.20;3.47;;;;;;;18.47;55.55;99561.88;10397406;28;20060;-63
2023/07/01 02:05:58;;;;;;;6.22;3.50;;;;;;;18.42;56.33;99558.06;10393171;28;20411;-67
2023/07/01 02:11:00;;;;;;;3.78;3.08;;;;;;;18.38;56.47;99561.16;10389031;28;20728;-64
2023/07/01 02:16:01;;;;;;;4.47;3.95;;;;;;;18.32;56.73;99553.00;10393035;28;20583;-63
2023/07/01 02:21:04;;;;;;;4.70;3.78;;;;;;;18.22;57.03;99531.75;10387564;28;20044;-63
2023/07/01 02:26:06;;;;;;;3.80;3.40;;;;;;;18.32;57.17;99543.06;10393004;28;20050;-63
2023/07/01 02:31:08;;;;;;;5.63;3.40;;;;;;;18.28;57.28;99535.56;10389259;28;20234;-63
2023/07/01 02:36:09;;;;;;;4.40;3.78;;;;;;;18.11;58.13;99525.03;10391455;28;20041;-65
2023/07/01 02:41:11;;;;;;;5.18;3.72;;;;;;;18.14;58.05;99523.81;10394858;28;20045;-64
2023/07/01 02:46:12;;;;;;;4.60;4.18;;;;;;;18.11;58.39;99524.19;10398381;28;20080;-64
2023/07/01 02:51:14;;;;;;;4.60;3.47;;;;;;;18.09;58.64;99528.91;10395413;28;20049;-64
2023/07/01 02:56:16;;;;;;;6.45;3.65;;;;;;;17.96;58.79;99516.16;10396929;28;20053;-64
2023/07/01 03:01:17;;;;;;;5.18;4.05;;;;;;;17.91;58.97;99519.44;10394433;28;20527;-64
2023/07/01 03:06:19;;;;;;;4.55;4.13;;;;;;;17.91;58.86;99523.94;10397133;28;20452;-64
2023/07/01 03:11:20;;;;;;;4.43;3.92;;;;;;;17.96;59.07;99533.13;10397771;28;20055;-65
2023/07/01 03:16:22;;;;;;;4.13;3.70;;;;;;;17.93;59.36;99536.22;10393262;28;20053;-65
2023/07/01 03:21:24;;;;;;;5.47;4.78;;;;;;;17.83;59.10;99535.63;10397032;28;20307;-64
2023/07/01 03:26:27;;;;;;;6.15;5.03;;;;;;;17.73;59.08;99522.50;10396204;28;20041;-64
2023/07/01 03:31:28;;;;;;;4.78;4.28;;;;;;;17.77;59.40;99526.44;10393095;28;20536;-64
2023/07/01 03:36:31;;;;;;;4.72;4.05;;;;;;;17.81;59.26;99532.31;10394732;28;20155;-65
2023/07/01 03:41:32;;;;;;;5.78;4.60;;;;;;;17.71;59.38;99513.75;10392966;28;20052;-64
2023/07/01 03:46:33;;;;;;;5.15;4.65;;;;;;;17.73;59.55;99516.25;10396559;28;20266;-64
2023/07/01 03:51:35;;;;;;;5.60;4.70;;;;;;;17.67;59.58;99513.31;10396248;28;20253;-63
2023/07/01 03:56:36;;;;;;;4.22;3.83;;;;;;;17.75;59.41;99514.22;10393226;28;20056;-63
2023/07/01 04:01:38;;;;;;;4.10;3.47;;;;;;;17.82;59.17;99507.06;10400674;28;20060;-63
2023/07/01 04:06:40;;;;;;;7.38;4.20;;;;;;;17.88;58.76;99503.63;10398963;28;20173;-63
2023/07/01 04:11:41;;;;;;;3.78;3.42;;;;;;;17.84;58.95;99497.75;10393789;28;20069;-66
2023/07/01 04:16:44;;;;;;;4.05;3.53;;;;;;;17.89;59.18;99521.44;10401547;28;20045;-64
2023/07/01 04:21:45;;;;;;;4.45;3.33;;;;;;;17.92;58.24;99514.88;10394415;28;20047;-63
2023/07/01 04:26:47;;;;;;;3.97;3.08;;;;;;;17.94;57.24;99505.59;10396133;28;20045;-64
2023/07/01 04:31:48;;;;;;;5.57;3.40;;;;;;;17.96;57.67;99500.00;10395839;28;20069;-64
2023/07/01 04:36:49;;;;;;;4.38;3.58;;;;;;;17.97;57.13;99499.81;10398895;28;20143;-64
2023/07/01 04:41:51;;;;;;;3.97;3.58;;;;;;;18.00;56.79;99493.22;10395660;28;20045;-68
2023/07/01 04:46:52;;;;;;;4.07;3.33;;;;;;;17.98;57.40;99487.19;10391514;28;20049;-66
2023/07/01 04:51:54;;;;;;;8.65;3.97;;;;;;;17.94;57.50;99483.19;10396558;28;20137;-63
2023/07/01 04:56:55;;;;;;;5.47;3.53;;;;;;;18.02;57.75;99483.91;10387438;28;20089;-64
2023/07/01 05:01:57;;;;;;;4.70;4.03;;;;;;;18.03;57.11;99476.69;10390646;28;20057;-64
2023/07/01 05:06:59;;;;;;;4.28;3.45;;;;;;;17.90;57.69;99490.00;10393115;28;20143;-64
2023/07/01 05:12:00;;;;;;;3.88;3.30;;;;;;;17.85;58.15;99482.47;10390156;28;20504;-63
2023/07/01 05:17:02;;;;;;;3.67;3.28;;;;;;;17.93;58.04;99473.47;10394016;28;20702;-63
2023/07/01 05:22:03;;;;;;;5.47;3.47;;;;;;;17.96;58.11;99479.28;10393568;28;20648;-64
2023/07/01 05:27:05;;;;;;;5.30;3.03;;;;;;;17.96;58.08;99484.69;10393139;28;20057;-64
2023/07/01 05:32:07;;;;;;;5.28;3.30;;;;;;;17.92;58.12;99466.41;10391725;28;20507;-65
2023/07/01 05:37:08;;;;;;;3.67;3.20;;;;;;;17.96;57.81;99468.53;10406787;28;20158;-65
2023/07/01 05:42:10;;;;;;;3.67;3.20;;;;;;;17.93;58.23;99462.69;10389069;28;20146;-64
2023/07/01 05:47:11;;;;;;;5.40;3.70;;;;;;;17.98;58.27;99465.63;10392558;28;20128;-63
2023/07/01 05:52:12;;;;;;;5.90;3.65;;;;;;;17.82;57.58;99437.09;10393180;28;20154;-63
2023/07/01 05:57:14;;;;;;;6.72;3.22;;;;;;;18.05;57.65;99450.38;10393295;28;20056;-63
2023/07/01 06:02:15;;;;;;;5.00;3.78;;;;;;;18.12;57.42;99462.06;10389564;28;20044;-63
2023/07/01 06:07:17;;;;;;;3.83;3.42;;;;;;;18.24;57.30;99469.63;10390389;28;20057;-64
2023/07/01 06:12:18;;;;;;;4.40;2.80;;;;;;;18.42;57.03;99472.72;10392286;28;20470;-62
2023/07/01 06:17:20;;;;;;;3.92;3.50;;;;;;;18.67;56.61;99465.00;10395201;28;20595;-63
2023/07/01 06:22:21;;;;;;;4.38;3.55;;;;;;;18.85;55.74;99461.88;10400768;28;20076;-63
2023/07/01 06:27:23;;;;;;;4.43;3.13;;;;;;;18.80;55.63;99450.00;10386924;28;20456;-67
2023/07/01 06:32:24;;;;;;;4.28;2.78;;;;;;;18.94;55.02;99453.63;10390689;28;20132;-65
2023/07/01 06:37:28;;;;;;;3.60;3.30;;;;;;;18.97;54.82;99448.66;10382834;28;20049;-69
2023/07/01 06:42:30;;;;;;;3.70;2.50;;;;;;;19.06;53.67;99436.69;10388739;28;20072;-70
2023/07/01 06:47:31;;;;;;;5.20;3.20;;;;;;;19.16;53.19;99425.53;10385896;28;20136;-70
2023/07/01 06:52:33;;;;;;;6.15;2.85;;;;;;;19.37;52.43;99435.41;10388205;28;20944;-72
2023/07/01 06:57:35;;;;;;;4.50;2.70;;;;;;;19.45;52.26;99438.97;10385284;28;20474;-70
2023/07/01 07:02:37;;;;;;;2.55;2.17;;;;;;;19.52;52.33;99424.47;10387188;28;21819;-71
2023/07/01 07:07:39;;;;;;;6.43;2.90;;;;;;;19.71;51.74;99441.75;10384561;28;20530;-70
2023/07/01 07:12:40;;;;;;;3.88;2.42;;;;;;;19.92;50.73;99413.81;10388834;28;20049;-67
2023/07/01 07:17:42;;;;;;;5.32;2.00;;;;;;;19.96;51.36;99415.03;10384952;28;20044;-69
2023/07/01 07:22:43;;;;;;;3.97;2.33;;;;;;;20.12;51.51;99408.41;10386618;28;20048;-69
2023/07/01 07:27:46;;;;;;;6.47;2.35;;;;;;;20.23;51.30;99398.03;10385608;28;20630;-68
2023/07/01 07:32:47;;;;;;;3.75;1.77;;;;;;;20.26;50.17;99397.63;10387733;28;20063;-67
2023/07/01 07:37:49;;;;;;;2.25;1.85;;;;;;;20.39;49.23;99386.81;10382414;28;20055;-65
2023/07/01 07:42:54;;;;;;;4.18;1.73;;;;;;;20.51;46.47;99378.91;10386638;28;20128;-66
2023/07/01 07:47:55;;;;;;;4.07;1.50;;;;;;;20.82;46.20;99391.78;10390058;28;20053;-67
2023/07/01 07:52:57;;;;;;;3.53;1.70;;;;;;;21.08;44.69;99384.63;10385458;28;20068;-70
2023/07/01 07:58:02;;;;;;;4.32;1.67;;;;;;;21.24;44.43;99363.53;10387012;28;20411;-67
2023/07/01 08:03:04;;;;;;;5.15;1.13;;;;;;;21.36;44.42;99362.66;10386860;28;20060;-67
2023/07/01 08:08:07;;;;;;;7.10;2.03;;;;;;;21.40;43.66;99376.59;10379505;28;20909;-69
2023/07/01 08:13:08;;;;;;;2.30;1.67;;;;;;;21.47;44.61;99371.16;10383450;28;20941;-68
2023/07/01 08:18:10;;;;;;;2.30;1.23;;;;;;;21.53;44.70;99360.31;10380620;28;20059;-68
2023/07/01 08:23:13;;;;;;;4.15;1.98;;;;;;;21.28;45.72;99351.25;10386979;28;20057;-67
2023/07/01 08:28:14;;;;;;;2.83;1.60;;;;;;;21.37;45.56;99367.00;10384876;28;20254;-68
2023/07/01 08:33:16;;;;;;;2.10;1.58;;;;;;;21.53;45.91;99354.88;10391797;28;20045;-67
2023/07/01 08:38:17;;;;;;;2.50;1.75;;;;;;;21.38;45.72;99351.63;10378398;28;20057;-66
2023/07/01 08:43:23;;;;;;;2.42;1.80;;;;;;;21.32;46.38;99352.47;10383453;28;20052;-68
2023/07/01 08:48:25;;;;;;;2.83;1.70;;;;;;;21.29;46.98;99345.63;10385574;28;20207;-67
2023/07/01 08:53:27;;;;;;;2.90;1.63;;;;;;;21.36;47.10;99362.66;10384571;28;20064;-66
2023/07/01 08:58:29;;;;;;;4.10;2.28;;;;;;;21.31;47.62;99372.47;10389645;28;20131;-66
2023/07/01 09:03:35;;;;;;;3.17;1.70;;;;;;;21.17;47.80;99356.28;10387662;28;20061;-67
2023/07/01 09:08:40;;;;;;;2.95;1.55;;;;;;;21.10;47.93;99358.19;10382316;28;20125;-67
2023/07/01 09:13:42;;;;;;;2.33;1.23;;;;;;;21.08;48.44;99357.56;10382362;28;20048;-66
2023/07/01 09:18:44;;;;;;;2.42;1.38;;;;;;;20.79;48.67;99315.63;10378721;28;20067;-66
2023/07/01 09:23:47;;;;;;;1.92;1.00;;;;;;;20.88;49.04;99340.56;10383032;28;20067;-64
2023/07/01 09:28:53;;;;;;;3.33;1.00;;;;;;;20.82;48.94;99343.09;10377592;28;20914;-65
2023/07/01 09:34:00;;;;;;;4.50;1.50;;;;;;;20.87;49.77;99344.31;10381109;28;20503;-66
2023/07/01 09:39:02;;;;;;;1.85;1.10;;;;;;;20.96;49.73;99343.06;10378065;28;20469;-66
2023/07/01 09:44:16;;;;;;;3.33;0.93;;;;;;;20.92;50.08;99331.00;10380946;28;20087;-64
2023/07/01 09:49:18;;;;;;;1.67;1.17;;;;;;;20.84;50.25;99324.78;10379813;28;20053;-65
2023/07/01 09:54:27;;;;;;;1.00;0.80;;;;;;;20.97;50.67;99344.69;10380735;28;20060;-66
2023/07/01 09:59:29;;;;;;;1.45;1.33;;;;;;;20.84;51.14;99324.78;10380194;28;20056;-67
2023/07/01 10:04:30;;;;;;;1.10;0.95;;;;;;;20.87;51.44;99323.53;10382554;28;20053;-65
2023/07/01 10:09:32;;;;;;;2.15;1.20;;;;;;;20.99;51.20;99321.81;10381433;28;20056;-66
2023/07/01 10:14:35;;;;;;;3.55;0.90;;;;;;;21.05;51.37;99330.94;10383365;28;20055;-65
2023/07/01 10:19:37;;;;;;;1.92;1.23;;;;;;;21.01;51.89;99324.31;10376336;28;20049;-69
2023/07/01 10:24:39;;;;;;;3.25;1.10;;;;;;;20.83;52.44;99325.81;10382000;28;20056;-66
2023/07/01 10:29:53;;;;;;;4.80;1.10;;;;;;;20.84;52.82;99335.59;10389141;28;20457;-66
2023/07/01 10:34:55;;;;;;;2.83;1.20;;;;;;;20.70;55.16;99323.16;10383367;28;20068;-69
2023/07/01 10:39:58;;;;;;;2.45;0.80;;;;;;;20.72;56.10;99323.78;10376834;28;20253;-68
2023/07/01 10:45:12;;;;;;;3.17;1.00;;;;;;;20.63;56.82;99327.72;10384126;28;20061;-71
2023/07/01 10:50:14;;;;;;;;;;;;;;;20.59;58.36;99326.50;10385257;28;20234;-67
2023/07/01 10:55:47;;;;;;;2.00;1.30;;;;;;;20.38;58.77;99319.47;10380547;28;20007;-67
2023/07/01 11:00:52;;;;;;;2.75;1.17;;;;;;;20.48;58.89;99339.59;10383012;28;20049;-66
2023/07/01 11:05:58;;;;;;;3.97;1.45;;;;;;;20.51;60.00;99337.50;10404182;28;20049;-69
2023/07/01 11:10:59;;;;;;;5.80;1.77;;;;;;;20.44;59.71;99324.84;10389973;28;20049;-69
2023/07/01 11:16:06;;;;;;;1.60;1.10;;;;;;;20.41;59.37;99325.25;10385478;28;20053;-71
2023/07/01 11:21:10;;;;;;;3.50;1.35;;;;;;;20.38;59.56;99331.09;10387852;28;20059;-67
2023/07/01 11:26:17;;;;;;;;;;;;;;;20.30;59.94;99334.03;10385929;28;20057;-71
2023/07/01 11:31:24;;;;;;;1.80;0.98;;;;;;;20.33;59.72;99333.59;10386713;28;20327;-68
2023/07/01 11:36:36;;;;;;;2.50;1.50;;;;;;;20.28;62.35;99326.13;10383262;28;20072;-68
2023/07/01 11:41:41;;;;;;;4.65;1.23;;;;;;;20.28;63.37;99330.69;10383852;28;20061;-66
2023/07/01 11:46:44;;;;;;;4.07;1.85;;;;;;;20.32;64.76;99326.53;10389330;28;20053;-69
2023/07/01 11:51:50;;;;;;;3.30;1.80;;;;;;;20.25;64.25;99323.00;10406014;28;20056;-70
2023/07/01 11:57:12;;;;;;;1.70;1.45;;;;;;;20.18;64.85;99314.91;10391367;28;20547;-68
2023/07/01 12:02:24;;;;;;;2.83;1.60;;;;;;;20.22;64.42;99315.31;10386430;28;20671;-68
2023/07/01 12:07:26;;;;;;;3.20;1.60;;;;;;;20.16;64.43;99310.75;10383715;28;20083;-72
2023/07/01 12:12:34;;;;;;;3.03;1.60;;;;;;;20.23;63.83;99322.38;10374248;28;20518;-68
2023/07/01 12:17:36;;;;;;;2.28;1.48;;;;;;;20.20;63.25;99314.69;10387653;28;20057;-72
2023/07/01 12:22:38;;;;;;;4.35;1.27;;;;;;;20.26;63.15;99306.56;10383212;28;20854;-70
2023/07/01 12:27:39;;;;;;;3.60;1.65;;;;;;;20.20;62.99;99293.09;10383039;28;20049;-69
2023/07/01 12:32:41;;;;;;;3.15;1.70;;;;;;;20.21;63.30;99286.66;10379432;28;20052;-67
2023/07/01 12:37:44;;;;;;;2.15;0.90;;;;;;;20.24;62.76;99294.34;10380095;28;20059;-67
2023/07/01 12:42:47;;;;;;;2.17;1.50;;;;;;;20.24;62.20;99297.84;10377293;28;20052;-70
2023/07/01 12:47:49;;;;;;;2.42;1.20;;;;;;;20.29;61.92;99289.94;10382254;28;20148;-68
2023/07/01 12:52:55;;;;;;;2.05;1.70;;;;;;;20.25;61.59;99267.09;10385378;28;20155;-70
2023/07/01 12:57:57;;;;;;;1.55;1.25;;;;;;;20.39;61.63;99275.19;10379062;28;20060;-67
2023/07/01 13:02:58;;;;;;;2.20;1.42;;;;;;;20.45;60.76;99280.56;10379121;28;20057;-70
2023/07/01 13:08:00;;;;;;;1.90;1.27;;;;;;;20.45;60.95;99272.47;10384681;28;20483;-70
2023/07/01 13:13:01;;;;;;;2.88;1.55;;;;;;;20.40;61.01;99257.91;10379574;28;20867;-67
2023/07/01 13:18:06;;;;;;;2.67;1.38;;;;;;;20.49;61.16;99259.34;10385242;28;20502;-68
2023/07/01 13:23:08;;;;;;;2.40;1.30;;;;;;;20.46;61.38;99257.91;10380348;28;20097;-66
2023/07/01 13:28:09;;;;;;;2.08;1.20;;;;;;;20.48;61.38;99258.50;10383313;28;20084;-67
2023/07/01 13:33:18;;;;;;;2.88;1.35;;;;;;;20.47;61.24;99245.22;10384576;28;20538;-71
2023/07/01 13:38:19;;;;;;;2.55;1.20;;;;;;;20.64;61.10;99259.06;10378381;28;20063;-69
2023/07/01 13:43:24;;;;;;;2.53;1.58;;;;;;;20.46;62.04;99246.25;10372446;28;20048;-69
2023/07/01 13:48:42;;;;;;;1.90;1.45;;;;;;;20.52;62.45;99264.31;10374298;28;20525;-69
2023/07/01 13:53:47;;;;;;;3.80;1.55;;;;;;;20.52;62.20;99249.97;10371790;28;20064;-67
2023/07/01 13:58:48;;;;;;;3.08;1.35;;;;;;;20.55;61.71;99239.59;10370323;28;20081;-69
2023/07/01 14:03:59;;;;;;;2.95;1.30;;;;;;;20.62;61.66;99251.19;10378850;28;20057;-68
2023/07/01 14:09:02;;;;;;;4.38;1.88;;;;;;;20.63;61.45;99227.69;10378503;28;20135;-69
2023/07/01 14:14:04;;;;;;;2.08;1.40;;;;;;;20.67;61.22;99237.06;10382875;28;20852;-69
2023/07/01 14:19:07;;;;;;;2.40;1.40;;;;;;;20.69;61.48;99239.53;10380981;28;20482;-70
2023/07/01 14:24:16;;;;;;;3.80;1.40;;;;;;;20.68;61.63;99238.72;10381715;28;20114;-69
2023/07/01 14:29:17;;;;;;;2.15;1.50;;;;;;;20.67;62.12;99242.47;10384083;28;20116;-68
2023/07/01 14:34:40;;;;;;;2.75;1.40;;;;;;;20.68;62.01;99237.91;10379390;28;20202;-69
2023/07/01 14:39:43;;;;;;;2.88;1.58;;;;;;;20.72;62.40;99239.13;10390533;28;20069;-67
2023/07/01 14:44:45;;;;;;;2.38;1.52;;;;;;;20.69;62.61;99226.88;10385191;28;21004;-70
2023/07/01 14:49:46;;;;;;;2.40;1.40;;;;;;;20.67;62.46;99220.81;10388745;28;20757;-68
2023/07/01 14:54:48;;;;;;;2.17;1.30;;;;;;;20.72;62.54;99233.72;10387656;28;20060;-69
2023/07/01 14:59:49;;;;;;;3.00;1.50;;;;;;;20.65;62.28;99217.50;10392137;28;20644;-68
2023/07/01 15:04:50;;;;;;;1.77;1.40;;;;;;;20.59;62.49;99215.66;10387503;28;20049;-68
2023/07/01 15:09:52;;;;;;;3.55;1.58;;;;;;;20.72;62.67;99217.50;10391789;28;20086;-69
2023/07/01 15:14:54;;;;;;;2.75;1.20;;;;;;;20.53;62.62;99194.88;10400239;28;20056;-67
2023/07/01 15:19:55;;;;;;;2.67;0.93;;;;;;;20.73;63.10;99230.81;10390321;28;20136;-68
2023/07/01 15:24:56;;;;;;;2.53;1.17;;;;;;;20.71;63.48;99230.19;10386048;28;20080;-68
2023/07/01 15:30:04;;;;;;;2.17;1.60;;;;;;;20.76;64.59;99238.50;10387966;28;20136;-68
2023/07/01 15:35:05;;;;;;;2.85;1.90;;;;;;;20.70;67.67;99230.41;10387789;28;20190;-68
2023/07/01 15:40:28;;;;;;;2.38;1.13;;;;;;;20.54;68.43;99229.81;10387746;28;20057;-70
2023/07/01 15:45:29;;;;;;;3.65;1.60;;;;;;;20.54;68.98;99223.59;10383966;28;20090;-67
2023/07/01 15:50:32;;;;;;;3.85;1.77;;;;;;;20.58;69.38;99216.69;10379954;28;20057;-65
2023/07/01 15:55:33;;;;;;;1.90;1.70;;;;;;;20.59;69.59;99229.16;10386053;28;20057;-68
2023/07/01 16:00:35;;;;;;;3.08;1.63;;;;;;;20.55;70.46;99209.84;10389409;28;20056;-67
2023/07/01 16:05:37;;;;;;;2.67;1.77;;;;;;;20.48;72.56;99214.44;10385667;28;20144;-68
2023/07/01 16:10:39;;;;;;;2.28;2.08;;;;;;;20.47;75.40;99232.53;10387577;28;20053;-68
2023/07/01 16:16:03;;;;;;;2.17;1.63;;;;;;;20.34;76.13;99221.75;10385540;28;20523;-69
2023/07/01 16:21:06;;;;;;;2.92;2.15;;;;;;;20.30;76.45;99210.53;10385169;28;20056;-68
2023/07/01 16:26:09;;;;;;;2.22;1.58;;;;;;;20.14;76.13;99198.31;10377047;28;21310;-68
2023/07/01 16:31:17;;;;;;;1.80;1.17;;;;;;;20.25;76.00;99212.22;10380560;28;20057;-68
2023/07/01 16:36:21;;;;;;;2.88;1.40;;;;;;;20.24;75.19;99206.00;10394145;28;20699;-68
2023/07/01 16:41:25;;;;;;;2.38;1.38;;;;;;;20.31;74.07;99216.75;10386478;28;20056;-68
2023/07/01 16:46:38;;;;;;;2.13;1.50;;;;;;;20.34;73.93;99208.22;10382312;28;20052;-69
2023/07/01 16:51:39;;;;;;;5.53;1.65;;;;;;;20.31;74.16;99206.81;10383900;28;20053;-67
2023/07/01 16:56:56;;;;;;;3.15;1.65;;;;;;;20.23;74.17;99190.81;10384561;28;20045;-67
2023/07/01 17:01:58;;;;;;;3.87;2.57;;;;;;;20.27;74.39;99194.75;10386831;28;20045;-66
2023/07/01 17:07:00;;;;;;;3.75;1.48;;;;;;;20.27;74.14;99188.53;10377730;28;21594;-68
2023/07/01 17:12:02;;;;;;;2.40;1.83;;;;;;;20.28;73.79;99180.22;10387369;28;20577;-67
2023/07/01 17:17:05;;;;;;;3.97;1.95;;;;;;;20.34;73.56;99175.81;10382627;28;20045;-67
2023/07/01 17:22:06;;;;;;;2.83;1.73;;;;;;;20.26;73.83;99173.34;10379656;28;20503;-67
2023/07/01 17:27:07;;;;;;;1.88;1.42;;;;;;;20.35;73.25;99188.28;10386177;28;20179;-67
2023/07/01 17:32:09;;;;;;;1.45;1.27;;;;;;;20.39;73.47;99192.22;10380401;28;20512;-66
2023/07/01 17:37:10;;;;;;;2.22;1.17;;;;;;;20.31;73.52;99178.94;10386344;28;20061;-66
2023/07/01 17:42:12;;;;;;;3.13;1.60;;;;;;;20.30;72.66;99185.41;10380984;28;20056;-66
2023/07/01 17:47:14;;;;;;;1.48;1.30;;;;;;;20.42;72.72;99197.22;10379333;28;20129;-68
2023/07/01 17:52:16;;;;;;;2.10;1.17;;;;;;;20.44;72.50;99192.41;10383824;28;20082;-65
2023/07/01 17:57:19;;;;;;;1.23;0.95;;;;;;;20.39;72.72;99200.34;10380243;28;20083;-65
2023/07/01 18:02:21;;;;;;;3.20;1.35;;;;;;;20.25;73.44;99204.97;10383382;28;20547;-65
2023/07/01 18:07:23;;;;;;;1.85;1.23;;;;;;;20.20;73.43;99201.22;10382388;28;20079;-67
2023/07/01 18:12:24;;;;;;;1.90;1.52;;;;;;;20.27;76.16;99223.66;10387658;28;20053;-66
2023/07/01 18:17:26;;;;;;;2.00;1.30;;;;;;;20.11;79.07;99222.22;10387875;28;20564;-69
2023/07/01 18:22:28;;;;;;;1.77;1.13;;;;;;;19.98;82.94;99233.88;10386493;28;20053;-68
2023/07/01 18:27:29;;;;;;;2.83;1.35;;;;;;;20.07;85.89;99232.63;10389743;28;20053;-67
2023/07/01 18:32:30;;;;;;;1.90;1.55;;;;;;;19.94;87.95;99211.06;10386173;28;20053;-68
2023/07/01 18:37:32;;;;;;;4.00;2.17;;;;;;;19.84;88.87;99189.03;10386062;28;20045;-67
2023/07/01 18:42:33;;;;;;;2.30;2.10;;;;;;;19.76;91.10;99196.28;10386398;28;20057;-66
2023/07/01 18:47:35;;;;;;;3.00;1.55;;;;;;;19.81;91.73;99228.09;10383030;28;23205;-69
2023/07/01 18:52:36;;;;;;;1.98;1.40;;;;;;;19.75;91.81;99223.50;10388829;28;20053;-67
2023/07/01 18:57:38;;;;;;;2.22;1.88;;;;;;;19.77;91.28;99222.28;10387880;28;20080;-69
2023/07/01 19:02:39;;;;;;;2.10;1.77;;;;;;;19.81;91.33;99221.88;10393475;28;20490;-69
2023/07/01 19:07:42;;;;;;;4.32;2.53;;;;;;;19.85;91.89;99228.50;10392872;28;20053;-67
2023/07/01 19:12:43;;;;;;;3.22;2.70;;;;;;;19.78;91.73;99218.53;10393233;28;20044;-69
2023/07/01 19:17:44;;;;;;;3.08;2.70;;;;;;;19.72;92.35;99208.53;10392255;28;20752;-67
2023/07/01 19:22:47;;;;;;;3.80;2.40;;;;;;;19.74;92.24;99227.22;10391041;28;20526;-67
2023/07/01 19:27:48;;;;;;;3.88;2.25;;;;;;;19.73;92.37;99231.78;10391098;28;20052;-71
2023/07/01 19:32:50;;;;;;;2.60;2.40;;;;;;;19.66;92.38;99236.34;10393187;28;20081;-68
2023/07/01 19:37:51;;;;;;;2.50;2.30;;;;;;;19.67;91.60;99237.22;10390839;28;20059;-67
2023/07/01 19:42:53;;;;;;;3.63;2.88;;;;;;;19.72;91.98;99251.72;10390564;28;20075;-67
2023/07/01 19:47:54;;;;;;;2.58;2.35;;;;;;;19.61;91.93;99244.25;10388648;28;20045;-67
2023/07/01 19:52:56;;;;;;;2.42;2.15;;;;;;;19.70;91.48;99258.41;10389202;28;20422;-67
2023/07/01 19:57:58;;;;;;;2.50;1.85;;;;;;;19.80;91.22;99263.38;10392201;28;20083;-66
2023/07/01 20:03:00;;;;;;;3.08;2.20;;;;;;;19.81;91.71;99265.88;10390180;28;21424;-67
2023/07/01 20:08:02;;;;;;;3.08;2.70;;;;;;;19.83;91.99;99281.88;10381594;28;20152;-67
2023/07/01 20:13:04;;;;;;;3.50;3.20;;;;;;;19.84;93.08;99292.47;10392403;28;20057;-67
2023/07/01 20:18:06;;;;;;;3.38;2.67;;;;;;;19.87;92.68;99292.06;10388237;28;20049;-68
2023/07/01 20:23:07;;;;;;;2.38;2.17;;;;;;;19.82;92.28;99272.13;10391167;28;20653;-68
2023/07/01 20:28:08;;;;;;;3.22;1.90;;;;;;;19.87;92.06;99292.06;10390880;28;20074;-67
2023/07/01 20:33:10;;;;;;;3.75;2.15;;;;;;;19.92;91.47;99294.97;10389747;28;20159;-70
2023/07/01 20:38:11;;;;;;;3.08;2.80;;;;;;;19.91;91.91;99297.88;10392300;28;20052;-67
2023/07/01 20:43:13;;;;;;;2.65;1.73;;;;;;;19.85;91.62;99280.63;10387899;28;20161;-67
2023/07/01 20:48:14;;;;;;;3.15;2.33;;;;;;;19.84;91.78;99292.47;10388239;28;20045;-66
2023/07/01 20:53:16;;;;;;;2.70;2.45;;;;;;;19.94;90.83;99292.06;10387463;28;20521;-66
2023/07/01 20:58:18;;;;;;;3.30;2.53;;;;;;;19.87;92.41;99291.22;10389776;28;20194;-66
2023/07/01 21:03:19;;;;;;;2.97;2.47;;;;;;;19.87;92.22;99302.03;10390668;28;21201;-66
2023/07/01 21:08:21;;;;;;;3.70;2.60;;;;;;;19.87;92.95;99302.03;10388750;28;20086;-66
2023/07/01 21:13:23;;;;;;;3.10;2.08;;;;;;;19.78;94.17;99298.69;10387358;28;20672;-66
2023/07/01 21:18:24;;;;;;;2.60;2.40;;;;;;;19.84;93.66;99319.47;10388191;28;21379;-66
2023/07/01 21:23:25;;;;;;;2.63;2.42;;;;;;;19.80;93.47;99309.28;10393321;28;20049;-66
2023/07/01 21:28:30;;;;;;;3.15;2.85;;;;;;;19.88;93.00;99319.91;10382553;28;20049;-67
2023/07/01 21:33:31;;;;;;;4.10;3.45;;;;;;;19.82;92.97;99320.75;10386384;28;20057;-67
2023/07/01 21:38:33;;;;;;;4.18;2.72;;;;;;;19.80;91.73;99333.59;10379992;28;20049;-69
2023/07/01 21:43:36;;;;;;;3.30;2.30;;;;;;;19.82;90.57;99343.16;10397416;28;20647;-69
2023/07/01 21:48:38;;;;;;;3.28;1.60;;;;;;;19.73;89.70;99315.50;10390694;28;20084;-68
2023/07/01 21:53:47;;;;;;;2.30;2.10;;;;;;;19.82;88.74;99335.06;10393316;28;20514;-66
2023/07/01 21:58:50;;;;;;;3.25;2.55;;;;;;;19.69;88.56;99322.34;10397724;28;20091;-66
2023/07/01 22:03:53;;;;;;;2.50;2.30;;;;;;;19.84;89.17;99348.34;10382776;28;20162;-66
2023/07/01 22:08:57;;;;;;;3.05;2.65;;;;;;;19.84;88.76;99341.06;10390299;28;20064;-67
2023/07/01 22:13:59;;;;;;;3.05;2.75;;;;;;;19.84;89.58;99341.06;10391057;28;20057;-67
2023/07/01 22:19:01;;;;;;;3.70;3.30;;;;;;;19.82;90.54;99339.63;10389996;28;20189;-65
2023/07/01 22:24:05;;;;;;;3.80;3.28;;;;;;;19.67;90.36;99318.19;10388263;28;20056;-66
2023/07/01 22:29:07;;;;;;;3.20;2.90;;;;;;;19.77;90.82;99346.47;10392858;28;20573;-66
2023/07/01 22:34:08;;;;;;;3.33;3.08;;;;;;;19.67;89.71;99342.50;10390635;28;20128;-66
2023/07/01 22:39:10;;;;;;;3.30;3.00;;;;;;;19.67;88.74;99356.81;10389649;28;20638;-66
2023/07/01 22:44:11;;;;;;;3.05;2.85;;;;;;;19.54;86.44;99348.69;10392241;28;20049;-67
2023/07/01 22:49:13;;;;;;;2.58;2.38;;;;;;;19.50;85.33;99360.91;10386646;28;20061;-65
2023/07/01 22:54:15;;;;;;;2.92;2.38;;;;;;;19.41;83.91;99357.56;10391620;28;20057;-66
2023/07/01 22:59:17;;;;;;;2.30;1.95;;;;;;;19.35;83.18;99352.97;10392290;28;20234;-66
2023/07/01 23:04:18;;;;;;;2.90;2.70;;;;;;;19.29;82.17;99359.19;10400446;28;20053;-65
2023/07/01 23:09:20;;;;;;;3.95;2.50;;;;;;;19.21;81.73;99363.72;10402611;28;20107;-66
2023/07/01 23:14:22;;;;;;;2.42;1.98;;;;;;;19.27;81.89;99367.50;10396439;28;20053;-66
2023/07/01 23:19:24;;;;;;;3.08;2.88;;;;;;;19.21;81.38;99365.59;10399318;28;20575;-66
2023/07/01 23:24:28;;;;;;;2.40;2.17;;;;;;;19.21;80.55;99373.69;10402980;28;20564;-66
2023/07/01 23:29:29;;;;;;;3.05;2.30;;;;;;;19.12;80.28;99364.13;10396057;28;20064;-66
2023/07/01 23:34:31;;;;;;;3.45;2.10;;;;;;;19.15;79.71;99380.72;10399945;28;20045;-66